createdAt,value
2019-04-21T00:02:27.657Z,23.40
2019-04-21T00:05:12.394Z,23.50
2019-04-21T00:07:36.540Z,24.20
2019-04-21T00:10:05.796Z,23.60
2019-04-21T00:12:35.579Z,23.80
2019-04-21T00:14:57.863Z,23.90
2019-04-21T00:17:19.317Z,24.00
2019-04-21T00:19:49.659Z,24.20
2019-04-21T00:22:32.427Z,24.00
2019-04-21T00:25:01.066Z,24.00
2019-04-21T00:27:33.463Z,23.90
2019-04-21T00:30:04.300Z,24.50
2019-04-21T00:32:29.290Z,23.90
2019-04-21T00:34:51.004Z,23.90
2019-04-21T00:37:24.119Z,23.80
2019-04-21T00:40:04.320Z,24.40
2019-04-21T00:42:30.257Z,23.90
2019-04-21T00:47:31.634Z,23.90
2019-04-21T00:50:00.820Z,23.80
2019-04-21T00:52:46.051Z,23.70
2019-04-21T00:55:14.025Z,23.60
2019-04-21T01:00:14.107Z,23.50
2019-04-21T01:02:46.883Z,23.40
2019-04-21T01:05:15.131Z,23.50
2019-04-21T01:07:42.441Z,23.40
2019-04-21T01:10:03.799Z,23.60
2019-04-21T01:12:37.640Z,23.50
2019-04-21T01:15:12.250Z,23.40
2019-04-21T01:17:35.587Z,23.40
2019-04-21T01:19:57.495Z,23.40
2019-04-21T01:22:11.238Z,23.50
2019-04-21T01:24:43.361Z,23.40
2019-04-21T01:27:14.582Z,23.60
2019-04-21T01:29:53.380Z,23.60
2019-04-21T01:32:25.402Z,23.60
2019-04-21T01:34:53.022Z,23.60
2019-04-21T01:37:21.022Z,23.60
2019-04-21T01:39:54.615Z,23.60
2019-04-21T01:42:21.372Z,23.60
2019-04-21T01:45:09.375Z,23.60
2019-04-21T01:47:36.004Z,23.60
2019-04-21T01:49:56.771Z,24.00
2019-04-21T01:52:44.193Z,23.80
2019-04-21T01:55:14.042Z,23.80
2019-04-21T01:57:42.584Z,23.90
2019-04-21T02:00:06.319Z,24.00
2019-04-21T02:02:44.864Z,23.80
2019-04-21T02:05:23.940Z,23.70
2019-04-21T02:07:40.564Z,23.70
2019-04-21T02:10:11.123Z,23.80
2019-04-21T02:12:40.970Z,23.80
2019-04-21T02:15:11.439Z,24.00
2019-04-21T02:17:35.634Z,24.10
2019-04-21T02:20:02.802Z,24.10
2019-04-21T02:22:54.926Z,24.30
2019-04-21T02:25:12.294Z,24.30
2019-04-21T02:27:41.190Z,24.20
2019-04-21T02:30:10.185Z,24.00
2019-04-21T02:32:43.569Z,23.80
2019-04-21T02:37:44.581Z,24.20
2019-04-21T02:40:12.869Z,24.10
2019-04-21T02:42:46.340Z,24.30
2019-04-21T02:45:10.640Z,24.20
2019-04-21T02:47:48.371Z,24.10
2019-04-21T02:50:13.453Z,24.20
2019-04-21T02:55:03.670Z,24.10
2019-04-21T02:57:39.681Z,24.10
2019-04-21T03:00:06.942Z,24.00
2019-04-21T03:02:40.755Z,24.90
2019-04-21T03:10:22.201Z,25.00
2019-04-21T03:12:53.043Z,24.70
2019-04-21T03:23:02.079Z,24.70
2019-04-21T03:25:27.790Z,24.80
2019-04-21T03:33:09.504Z,25.30
2019-04-21T03:37:47.025Z,25.50
2019-04-21T03:39:59.325Z,25.50
2019-04-21T03:42:36.838Z,25.60
2019-04-21T03:52:29.695Z,25.30
2019-04-21T04:00:42.464Z,25.30
2019-04-21T04:03:35.278Z,25.30
2019-04-21T04:05:57.539Z,25.30
2019-04-21T04:11:15.230Z,25.30
2019-04-21T04:13:44.212Z,25.20
2019-04-21T04:18:39.275Z,25.10
2019-04-21T04:21:05.799Z,25.10
2019-04-21T04:23:37.481Z,25.20
2019-04-21T04:28:36.276Z,25.20
2019-04-21T04:30:56.243Z,25.40
2019-04-21T04:33:27.965Z,25.30
2019-04-21T04:38:34.098Z,25.30
2019-04-21T04:41:12.056Z,25.10
2019-04-21T04:45:58.825Z,25.00
2019-04-21T04:48:47.502Z,24.90
2019-04-21T04:53:32.296Z,24.70
2019-04-21T04:58:29.726Z,24.30
2019-04-21T05:01:06.275Z,24.20
2019-04-21T05:03:26.329Z,23.80
2019-04-21T05:06:30.631Z,23.90
2019-04-21T05:11:31.819Z,23.70
2019-04-21T05:13:43.462Z,23.70
2019-04-21T05:16:22.100Z,23.40
2019-04-21T05:18:43.878Z,23.30
2019-04-21T05:21:14.313Z,23.30
2019-04-21T05:23:31.639Z,23.40
2019-04-21T05:25:50.802Z,23.40
2019-04-21T05:28:21.886Z,23.20
2019-04-21T05:31:19.432Z,23.20
2019-04-21T05:33:47.557Z,22.90
2019-04-21T05:36:34.185Z,22.80
2019-04-21T05:39:02.515Z,22.10
2019-04-21T05:41:29.136Z,22.50
2019-04-21T05:44:03.848Z,22.10
2019-04-21T05:46:39.780Z,22.10
2019-04-21T05:49:05.003Z,22.10
2019-04-21T05:51:30.529Z,21.90
2019-04-21T05:54:17.517Z,21.80
2019-04-21T05:56:35.428Z,21.70
2019-04-21T05:59:03.392Z,21.70
2019-04-21T06:01:39.349Z,21.70
2019-04-21T06:04:03.608Z,21.80
2019-04-21T06:06:39.197Z,21.70
2019-04-21T06:08:59.487Z,21.10
2019-04-21T06:11:30.619Z,20.50
2019-04-21T06:16:30.277Z,18.90
2019-04-21T06:19:04.936Z,18.50
2019-04-21T06:21:21.958Z,18.20
2019-04-21T06:23:51.426Z,17.80
2019-04-21T06:26:44.875Z,17.60
2019-04-21T06:31:26.955Z,17.00
2019-04-21T06:33:52.265Z,16.80
2019-04-21T06:39:04.743Z,17.40
2019-04-21T06:46:26.196Z,16.80
2019-04-21T06:48:55.524Z,17.00
2019-04-21T06:51:24.050Z,17.10
2019-04-21T06:53:57.735Z,17.00
2019-04-21T06:56:27.156Z,17.00
2019-04-21T06:58:42.885Z,16.70
2019-04-21T07:01:21.614Z,17.20
2019-04-21T07:03:48.618Z,16.80
2019-04-21T07:06:12.653Z,17.10
2019-04-21T07:08:55.095Z,17.40
2019-04-21T07:11:10.951Z,16.90
2019-04-21T07:13:36.751Z,17.00
2019-04-21T07:16:12.047Z,17.10
2019-04-21T07:18:41.516Z,17.30
2019-04-21T07:21:06.098Z,17.60
2019-04-21T07:23:42.029Z,17.00
2019-04-21T07:26:02.991Z,17.00
2019-04-21T07:28:46.039Z,17.30
2019-04-21T07:31:08.010Z,17.40
2019-04-21T07:36:09.011Z,17.70
2019-04-21T07:38:32.015Z,17.40
2019-04-21T07:40:54.275Z,17.50
2019-04-21T07:43:20.536Z,17.60
2019-04-21T07:45:51.587Z,17.70
2019-04-21T07:48:24.932Z,17.40
2019-04-21T07:51:18.879Z,17.20
2019-04-21T07:53:55.716Z,17.50
2019-04-21T07:56:06.257Z,17.50
2019-04-21T07:58:56.309Z,18.10
2019-04-21T08:01:20.166Z,17.90
2019-04-21T08:03:46.757Z,17.30
2019-04-21T08:06:19.372Z,17.00
2019-04-21T08:08:40.986Z,17.50
2019-04-21T08:11:09.625Z,18.10
2019-04-21T08:13:39.476Z,17.70
2019-04-21T08:16:10.601Z,17.20
2019-04-21T08:18:40.617Z,16.80
2019-04-21T08:21:05.756Z,16.60
2019-04-21T08:23:31.744Z,16.70
2019-04-21T08:26:06.109Z,17.00
2019-04-21T08:28:35.435Z,17.50
2019-04-21T08:31:01.789Z,17.40
2019-04-21T08:33:38.249Z,17.70
2019-04-21T08:38:35.876Z,17.30
2019-04-21T08:41:05.121Z,17.40
2019-04-21T08:43:36.970Z,17.80
2019-04-21T08:46:03.039Z,17.70
2019-04-21T08:48:28.513Z,17.50
2019-04-21T08:51:06.269Z,18.40
2019-04-21T08:53:28.975Z,17.70
2019-04-21T08:56:04.433Z,17.80
2019-04-21T08:58:34.341Z,17.60
2019-04-21T09:01:01.090Z,17.20
2019-04-21T09:03:28.449Z,17.50
2019-04-21T09:05:59.673Z,17.40
2019-04-21T09:08:31.677Z,17.90
2019-04-21T09:10:55.447Z,17.20
2019-04-21T09:13:25.119Z,17.50
2019-04-21T09:15:53.615Z,17.90
2019-04-21T09:18:21.770Z,18.50
2019-04-21T09:20:57.078Z,17.70
2019-04-21T09:23:19.875Z,17.90
2019-04-21T09:25:53.135Z,18.30
2019-04-21T09:28:18.340Z,18.30
2019-04-21T09:30:39.515Z,18.20
2019-04-21T09:33:00.533Z,18.50
2019-04-21T09:35:29.169Z,18.30
2019-04-21T09:38:03.979Z,18.00
2019-04-21T09:40:30.125Z,17.80
2019-04-21T09:43:01.035Z,17.70
2019-04-21T09:45:24.457Z,17.60
2019-04-21T09:48:00.854Z,17.70
2019-04-21T09:50:22.091Z,18.00
2019-04-21T09:52:57.467Z,17.50
2019-04-21T09:55:22.559Z,17.60
2019-04-21T09:57:53.541Z,17.80
2019-04-21T10:00:21.152Z,18.00
2019-04-21T10:02:54.647Z,18.10
2019-04-21T10:05:14.561Z,18.00
2019-04-21T10:07:42.894Z,18.20
2019-04-21T10:10:10.711Z,17.80
2019-04-21T10:12:37.489Z,18.00
2019-04-21T10:15:06.262Z,18.20
2019-04-21T10:17:39.606Z,18.10
2019-04-21T10:20:09.477Z,17.70
2019-04-21T10:22:37.248Z,18.00
2019-04-21T10:25:08.145Z,18.30
2019-04-21T10:27:36.850Z,19.30
2019-04-21T10:30:07.945Z,17.70
2019-04-21T10:32:36.329Z,17.80
2019-04-21T10:35:05.507Z,18.60
2019-04-21T10:37:45.436Z,18.10
2019-04-21T10:40:05.377Z,18.10
2019-04-21T10:42:33.203Z,17.10
2019-04-21T10:45:01.080Z,17.40
2019-04-21T10:47:29.358Z,17.50
2019-04-21T10:49:56.414Z,17.40
2019-04-21T10:52:27.877Z,17.60
2019-04-21T10:55:11.171Z,17.40
2019-04-21T10:57:26.354Z,17.40
2019-04-21T10:59:55.959Z,17.70
2019-04-21T11:02:26.912Z,17.40
2019-04-21T11:04:54.518Z,17.20
2019-04-21T11:07:38.981Z,17.30
2019-04-21T11:10:04.650Z,17.70
2019-04-21T11:12:31.500Z,17.80
2019-04-21T11:14:58.907Z,16.90
2019-04-21T11:17:25.970Z,17.10
2019-04-21T11:19:52.895Z,16.80
2019-04-21T11:22:20.887Z,16.30
2019-04-21T11:24:48.986Z,16.50
2019-04-21T11:27:16.997Z,16.90
2019-04-21T11:29:44.353Z,16.70
2019-04-21T11:32:12.637Z,15.90
2019-04-21T11:34:40.740Z,16.20
2019-04-21T11:37:10.221Z,15.80
2019-04-21T11:39:46.276Z,15.80
2019-04-21T11:42:07.925Z,16.30
2019-04-21T11:44:35.333Z,16.20
2019-04-21T11:47:04.694Z,16.40
2019-04-21T11:49:32.581Z,16.90
2019-04-21T11:52:00.767Z,16.60
2019-04-21T11:54:28.938Z,15.80
2019-04-21T11:56:56.932Z,16.60
2019-04-21T11:59:24.308Z,16.40
2019-04-21T12:01:51.847Z,16.30
2019-04-21T12:04:18.681Z,16.30
2019-04-21T12:06:47.612Z,15.70
2019-04-21T12:09:17.066Z,15.40
2019-04-21T12:11:45.334Z,16.00
2019-04-21T12:14:14.148Z,15.70
2019-04-21T12:16:41.372Z,15.00
2019-04-21T12:19:09.166Z,15.50
2019-04-21T12:21:49.158Z,16.10
2019-04-21T12:24:06.928Z,16.20
2019-04-21T12:26:35.940Z,16.70
2019-04-21T12:29:03.914Z,16.30
2019-04-21T12:31:39.275Z,15.70
2019-04-21T12:34:09.858Z,15.60
2019-04-21T12:36:38.039Z,15.70
2019-04-21T12:39:08.430Z,15.90
2019-04-21T12:41:36.206Z,15.70
2019-04-21T12:44:04.625Z,15.40
2019-04-21T12:46:31.885Z,15.40
2019-04-21T12:48:59.958Z,15.20
2019-04-21T12:51:33.725Z,15.20
2019-04-21T12:54:01.621Z,14.50
2019-04-21T12:56:29.472Z,14.90
2019-04-21T12:58:57.680Z,15.20
2019-04-21T13:01:25.545Z,14.00
2019-04-21T13:03:52.562Z,14.50
2019-04-21T13:06:19.732Z,14.70
2019-04-21T13:08:56.857Z,15.00
2019-04-21T13:11:17.125Z,15.40
2019-04-21T13:13:44.176Z,15.40
2019-04-21T13:16:11.765Z,15.60
2019-04-21T13:18:39.583Z,16.00
2019-04-21T13:21:07.265Z,15.80
2019-04-21T13:23:35.013Z,15.60
2019-04-21T13:26:04.358Z,16.00
2019-04-21T13:28:32.436Z,16.60
2019-04-21T13:31:00.197Z,16.90
2019-04-21T13:33:27.512Z,17.60
2019-04-21T13:35:55.149Z,17.50
2019-04-21T13:38:30.139Z,18.00
2019-04-21T13:41:21.458Z,17.60
2019-04-21T13:43:39.203Z,17.70
2019-04-21T13:46:07.946Z,18.10
2019-04-21T13:48:36.761Z,17.70
2019-04-21T13:51:07.152Z,17.80
2019-04-21T13:53:35.909Z,17.90
2019-04-21T13:56:04.603Z,17.90
2019-04-21T13:58:32.709Z,17.70
2019-04-21T14:00:59.997Z,17.40
2019-04-21T14:03:27.429Z,18.20
2019-04-21T14:05:56.075Z,17.40
2019-04-21T14:08:23.365Z,17.40
2019-04-21T14:10:51.522Z,17.60
2019-04-21T14:13:20.355Z,18.20
2019-04-21T14:15:48.811Z,17.40
2019-04-21T14:18:16.381Z,17.10
2019-04-21T14:20:44.976Z,17.20
2019-04-21T14:23:21.085Z,17.40
2019-04-21T14:25:41.690Z,17.40
2019-04-21T14:28:10.195Z,17.30
2019-04-21T14:30:38.514Z,17.50
2019-04-21T14:33:05.946Z,17.60
2019-04-21T14:35:34.846Z,17.60
2019-04-21T14:38:02.715Z,17.50
2019-04-21T14:40:32.917Z,17.60
2019-04-21T14:43:00.199Z,17.60
2019-04-21T14:45:41.163Z,17.50
2019-04-21T14:48:23.228Z,17.30
2019-04-21T14:51:04.325Z,17.30
2019-04-21T14:53:34.092Z,17.30
2019-04-21T14:56:01.473Z,17.30
2019-04-21T14:58:28.548Z,17.50
2019-04-21T15:01:02.047Z,17.50
2019-04-21T15:03:29.981Z,18.20
2019-04-21T15:05:57.771Z,18.00
2019-04-21T15:08:26.931Z,17.90
2019-04-21T15:10:54.938Z,17.70
2019-04-21T15:13:23.615Z,17.70
2019-04-21T15:15:52.188Z,17.90
2019-04-21T15:18:20.947Z,17.90
2019-04-21T15:20:50.485Z,18.40
2019-04-21T15:23:17.995Z,18.40
2019-04-21T15:25:46.026Z,18.50
2019-04-21T15:28:13.830Z,18.70
2019-04-21T15:30:42.422Z,18.90
2019-04-21T15:33:11.151Z,19.20
2019-04-21T15:35:40.612Z,19.20
2019-04-21T15:38:09.647Z,18.90
2019-04-21T15:40:45.691Z,19.10
2019-04-21T15:43:06.468Z,19.30
2019-04-21T15:45:34.945Z,19.30
2019-04-21T15:48:02.542Z,19.20
2019-04-21T15:50:30.167Z,19.50
2019-04-21T15:53:01.391Z,19.70
2019-04-21T15:55:37.040Z,19.90
2019-04-21T15:58:06.854Z,19.90
2019-04-21T16:00:36.454Z,20.00
2019-04-21T16:03:04.609Z,21.00
2019-04-21T16:05:32.964Z,20.70
2019-04-21T16:08:00.331Z,20.70
2019-04-21T16:10:36.933Z,20.60
2019-04-21T16:12:56.167Z,20.80
2019-04-21T16:15:23.010Z,20.80
2019-04-21T16:17:51.066Z,21.00
2019-04-21T16:20:19.787Z,21.10
2019-04-21T16:22:46.576Z,21.10
2019-04-21T16:25:14.961Z,21.40
2019-04-21T16:27:43.415Z,21.30
2019-04-21T16:30:12.141Z,21.30
2019-04-21T16:32:39.041Z,21.40
2019-04-21T16:35:10.645Z,21.80
2019-04-21T16:37:37.334Z,22.10
2019-04-21T16:40:07.331Z,22.30
2019-04-21T16:42:36.166Z,22.50
2019-04-21T16:45:05.602Z,22.80
2019-04-21T16:47:32.617Z,22.90
2019-04-21T16:49:59.713Z,23.00
2019-04-21T16:52:28.390Z,23.10
2019-04-21T16:54:58.298Z,23.10
2019-04-21T16:57:28.411Z,23.20
2019-04-21T16:59:57.119Z,23.40
2019-04-21T17:02:24.825Z,23.50
2019-04-21T17:04:52.154Z,23.50
2019-04-21T17:07:19.988Z,23.60
2019-04-21T17:09:48.614Z,23.60
2019-04-21T17:12:16.574Z,23.60
2019-04-21T17:14:57.152Z,23.80
2019-04-21T17:17:37.233Z,23.90
2019-04-21T17:19:47.030Z,24.00
2019-04-21T17:22:11.640Z,24.00
2019-04-21T17:24:40.213Z,24.00
2019-04-21T17:27:08.999Z,24.30
2019-04-21T17:29:36.639Z,24.30
2019-04-21T17:32:06.509Z,24.40
2019-04-21T17:34:34.288Z,24.60
2019-04-21T17:37:01.755Z,24.50
2019-04-21T17:39:31.129Z,24.60
2019-04-21T17:42:11.867Z,24.60
2019-04-21T17:44:27.739Z,24.40
2019-04-21T17:47:01.511Z,24.50
2019-04-21T17:49:25.214Z,24.50
2019-04-21T17:52:00.861Z,24.40
2019-04-21T17:54:35.760Z,24.50
2019-04-21T17:57:23.272Z,24.40
2019-04-21T17:59:58.827Z,24.50
2019-04-21T18:02:21.334Z,24.50
2019-04-21T18:04:42.666Z,24.50
2019-04-21T18:07:27.370Z,24.40
2019-04-21T18:10:00.243Z,24.40
2019-04-21T18:12:25.829Z,24.40
2019-04-21T18:14:38.088Z,24.30
2019-04-21T18:17:06.532Z,24.20
2019-04-21T18:19:36.843Z,24.20
2019-04-21T18:22:07.053Z,24.10
2019-04-21T18:24:48.002Z,24.10
2019-04-21T18:27:09.206Z,24.30
2019-04-21T18:29:36.701Z,24.60
2019-04-21T18:32:04.190Z,24.60
2019-04-21T18:34:34.258Z,25.00
2019-04-21T18:37:32.661Z,25.70
2019-04-21T18:40:02.444Z,26.40
2019-04-21T18:42:45.487Z,26.90
2019-04-21T18:45:44.335Z,27.10
2019-04-21T18:48:02.699Z,27.30
2019-04-21T18:50:21.970Z,27.50
2019-04-21T18:53:04.816Z,27.80
2019-04-21T18:55:30.055Z,28.10
2019-04-21T18:57:51.601Z,28.20
2019-04-21T19:00:26.242Z,28.20
2019-04-21T19:02:52.918Z,28.20
2019-04-21T19:05:21.173Z,28.30
2019-04-21T19:08:04.457Z,28.40
2019-04-21T19:10:35.478Z,28.50
2019-04-21T19:13:29.043Z,28.70
2019-04-21T19:15:28.187Z,29.50
2019-04-21T19:18:34.054Z,29.40
2019-04-21T19:20:29.500Z,29.60
2019-04-21T19:22:58.744Z,29.60
2019-04-21T19:25:25.654Z,29.50
2019-04-21T19:27:55.377Z,29.90
2019-04-21T19:30:36.419Z,30.00
2019-04-21T19:32:58.406Z,29.90
2019-04-21T19:35:09.739Z,30.00
2019-04-21T19:37:43.836Z,29.80
2019-04-21T19:40:22.138Z,29.70
2019-04-21T19:42:47.980Z,29.70
2019-04-21T19:45:22.446Z,29.80
2019-04-21T19:47:53.267Z,29.90
2019-04-21T19:50:28.680Z,30.50
2019-04-21T19:52:46.566Z,30.00
2019-04-21T19:55:06.672Z,30.40
2019-04-21T19:57:34.754Z,30.60
2019-04-21T20:00:06.163Z,30.80
2019-04-21T20:02:34.381Z,31.20
2019-04-21T20:05:07.927Z,31.30
2019-04-21T20:07:48.060Z,31.20
2019-04-21T20:10:26.906Z,31.20
2019-04-21T20:12:56.650Z,31.30
2019-04-21T20:15:31.788Z,31.30
2019-04-21T20:17:50.176Z,31.30
2019-04-21T20:20:06.829Z,31.50
2019-04-21T20:22:40.353Z,31.50
2019-04-21T20:25:11.941Z,31.60
2019-04-21T20:27:45.508Z,31.80
2019-04-21T20:30:26.235Z,31.50
2019-04-21T20:32:56.498Z,31.70
2019-04-21T20:35:34.716Z,31.60
2019-04-21T20:37:47.762Z,31.60
2019-04-21T20:40:21.820Z,31.40
2019-04-21T20:42:46.568Z,31.30
2019-04-21T20:45:40.643Z,31.00
2019-04-21T20:47:42.403Z,31.00
2019-04-21T20:50:22.172Z,31.00
2019-04-21T20:52:56.542Z,30.80
2019-04-21T20:55:17.906Z,30.80
2019-04-21T20:57:46.490Z,30.90
2019-04-21T21:00:25.722Z,31.00
2019-04-21T21:02:53.499Z,31.00
2019-04-21T21:05:23.342Z,31.00
2019-04-21T21:07:55.917Z,31.00
2019-04-21T21:10:20.529Z,31.10
2019-04-21T21:12:57.653Z,31.10
2019-04-21T21:15:19.726Z,31.00
2019-04-21T21:18:01.564Z,31.10
2019-04-21T21:20:24.882Z,31.00
2019-04-21T21:22:55.353Z,31.00
2019-04-21T21:25:25.856Z,31.60
2019-04-21T21:27:47.149Z,30.90
2019-04-21T21:30:16.125Z,30.90
2019-04-21T21:32:52.420Z,31.00
2019-04-21T21:35:17.817Z,31.10
2019-04-21T21:37:52.695Z,31.20
2019-04-21T21:40:25.855Z,31.20
2019-04-21T21:42:35.392Z,31.40
2019-04-21T21:45:05.720Z,31.50
2019-04-21T21:47:49.896Z,31.60
2019-04-21T21:50:07.666Z,31.60
2019-04-21T21:52:42.370Z,31.50
2019-04-21T21:54:55.890Z,31.50
2019-04-21T21:57:23.215Z,31.40
2019-04-21T21:59:52.932Z,31.60
2019-04-21T22:02:29.419Z,31.60
2019-04-21T22:04:58.294Z,31.50
2019-04-21T22:07:22.539Z,31.40
2019-04-21T22:09:47.999Z,31.40
2019-04-21T22:12:16.066Z,31.30
2019-04-21T22:14:48.405Z,31.20
2019-04-21T22:17:28.979Z,31.10
2019-04-21T22:20:03.294Z,31.10
2019-04-21T22:22:23.161Z,30.80
2019-04-21T22:24:50.757Z,30.80
2019-04-21T22:27:09.451Z,30.70
2019-04-21T22:29:45.612Z,30.70
2019-04-21T22:32:13.449Z,30.80
2019-04-21T22:34:46.767Z,30.80
2019-04-21T22:37:26.216Z,30.90
2019-04-21T22:39:56.910Z,30.90
2019-04-21T22:42:15.446Z,31.00
2019-04-21T22:44:36.581Z,31.10
2019-04-21T22:47:12.231Z,31.00
2019-04-21T22:49:34.885Z,31.00
2019-04-21T22:52:08.891Z,31.00
2019-04-21T22:54:37.352Z,31.20
2019-04-21T22:57:11.773Z,31.20
2019-04-21T22:59:32.428Z,31.30
2019-04-21T23:02:01.383Z,31.30
2019-04-21T23:04:36.820Z,31.30
2019-04-21T23:07:04.131Z,31.20
2019-04-21T23:09:28.779Z,31.20
2019-04-21T23:11:57.698Z,31.20
2019-04-21T23:14:25.853Z,31.20
2019-04-21T23:16:54.702Z,31.20
2019-04-21T23:19:36.339Z,31.20
2019-04-21T23:22:09.470Z,31.10
2019-04-21T23:24:41.767Z,31.10
2019-04-21T23:27:00.025Z,31.10
2019-04-21T23:29:47.517Z,31.00
2019-04-21T23:32:02.991Z,31.20
2019-04-21T23:34:25.179Z,30.90
2019-04-21T23:36:54.786Z,30.80
2019-04-21T23:39:23.697Z,30.80
2019-04-21T23:41:51.189Z,30.70
2019-04-21T23:44:17.149Z,30.80
2019-04-21T23:46:44.407Z,30.80
2019-04-21T23:49:27.173Z,30.90
2019-04-21T23:51:47.716Z,30.90
2019-04-21T23:54:11.252Z,30.90
2019-04-21T23:56:42.562Z,30.90
2019-04-21T23:59:10.827Z,30.80
